createdAt,value
2023-02-05T00:00:29.532Z,9.280065
2023-02-05T00:01:29.509Z,9.280074
2023-02-05T00:02:30.669Z,9.280055
2023-02-05T00:03:29.544Z,9.279861
2023-02-05T00:04:29.499Z,9.280029
2023-02-05T00:05:29.428Z,9.279982
2023-02-05T00:06:30.429Z,9.279822
2023-02-05T00:07:29.421Z,9.279817
2023-02-05T00:08:29.381Z,9.279941
2023-02-05T00:09:29.391Z,9.280025
2023-02-05T00:10:29.343Z,9.279965
2023-02-05T00:11:29.323Z,9.279996
2023-02-05T00:12:29.342Z,9.280096
2023-02-05T00:13:29.291Z,9.280135
2023-02-05T00:14:29.311Z,9.279956
2023-02-05T00:15:29.258Z,9.279989
2023-02-05T00:16:29.246Z,9.279902
2023-02-05T00:17:29.247Z,9.280005
2023-02-05T00:18:29.198Z,9.280160
2023-02-05T00:19:29.179Z,9.280002
2023-02-05T00:20:29.167Z,9.279893
2023-02-05T00:21:29.142Z,9.279643
2023-02-05T00:22:29.155Z,9.279685
2023-02-05T00:23:29.110Z,9.279795
2023-02-05T00:24:29.087Z,9.279790
2023-02-05T00:25:29.098Z,9.279787
2023-02-05T00:26:29.050Z,9.279796
2023-02-05T00:27:29.033Z,9.279699
2023-02-05T00:28:29.023Z,9.279753
2023-02-05T00:29:28.997Z,9.279705
2023-02-05T00:30:29.043Z,9.279760
2023-02-05T00:31:29.023Z,9.279827
2023-02-05T00:32:28.959Z,9.279878
2023-02-05T00:33:28.923Z,9.279860
2023-02-05T00:34:28.914Z,9.279858
2023-02-05T00:35:28.914Z,9.279858
2023-02-05T00:36:29.877Z,9.279837
2023-02-05T00:37:28.856Z,9.279844
2023-02-05T00:38:28.859Z,9.279791
2023-02-05T00:39:28.819Z,9.279819
2023-02-05T00:40:28.837Z,9.279836
2023-02-05T00:41:28.788Z,9.279881
2023-02-05T00:42:28.781Z,9.279938
2023-02-05T00:43:28.755Z,9.279972
2023-02-05T00:44:28.731Z,9.280022
2023-02-05T00:45:28.750Z,9.279915
2023-02-05T00:46:28.738Z,9.279841
2023-02-05T00:47:28.685Z,9.279873
2023-02-05T00:48:28.663Z,9.279851
2023-02-05T00:49:28.643Z,9.279906
2023-02-05T00:50:28.660Z,9.279921
2023-02-05T00:51:28.608Z,9.279922
2023-02-05T00:52:28.642Z,9.279898
2023-02-05T00:53:28.575Z,9.279852
2023-02-05T00:54:28.556Z,9.279885
2023-02-05T00:55:28.568Z,9.279922
2023-02-05T00:56:28.522Z,9.279964
2023-02-05T00:57:28.522Z,9.279963
2023-02-05T00:58:28.487Z,9.279951
2023-02-05T00:59:28.469Z,9.279906
2023-02-05T01:00:28.490Z,9.279944
2023-02-05T01:01:28.501Z,9.279944
2023-02-05T01:02:28.471Z,9.279877
2023-02-05T01:03:28.404Z,9.279885
2023-02-05T01:04:28.381Z,9.279867
2023-02-05T01:05:28.398Z,9.279787
2023-02-05T01:06:28.357Z,9.279774
2023-02-05T01:07:28.359Z,9.279848
2023-02-05T01:08:28.311Z,9.279847
2023-02-05T01:09:28.298Z,9.279835
2023-02-05T01:10:28.278Z,9.279779
2023-02-05T01:11:28.259Z,9.279823
2023-02-05T01:12:28.267Z,9.279877
2023-02-05T01:13:28.241Z,9.279896
2023-02-05T01:14:28.206Z,9.279945
2023-02-05T01:15:28.214Z,9.279850
2023-02-05T01:16:28.171Z,9.279886
2023-02-05T01:17:28.149Z,9.279838
2023-02-05T01:18:28.130Z,9.279845
2023-02-05T01:19:28.918Z,9.279918
2023-02-05T01:20:28.129Z,9.279945
2023-02-05T01:21:28.076Z,9.279832
2023-02-05T01:22:28.060Z,9.279901
2023-02-05T01:23:28.066Z,9.279908
2023-02-05T01:24:28.017Z,9.279918
2023-02-05T01:25:28.033Z,9.279903
2023-02-05T01:26:27.983Z,9.279950
2023-02-05T01:27:27.971Z,9.279898
2023-02-05T01:28:27.943Z,9.279737
2023-02-05T01:29:29.402Z,9.279861
2023-02-05T01:30:28.940Z,9.279869
2023-02-05T01:31:27.958Z,9.279840
2023-02-05T01:32:27.876Z,9.279883
2023-02-05T01:33:27.854Z,9.279837
2023-02-05T01:34:27.839Z,9.279901
2023-02-05T01:35:27.849Z,9.279887
2023-02-05T01:36:27.798Z,9.279786
2023-02-05T01:37:27.782Z,9.279918
2023-02-05T01:38:27.759Z,9.280007
2023-02-05T01:39:27.739Z,9.280009
2023-02-05T01:40:27.754Z,9.279939
2023-02-05T01:41:27.713Z,9.279632
2023-02-05T01:42:27.687Z,9.279810
2023-02-05T01:43:27.664Z,9.279864
2023-02-05T01:44:27.647Z,9.279958
2023-02-05T01:45:28.450Z,9.279835
2023-02-05T01:46:27.658Z,9.279890
2023-02-05T01:47:27.591Z,9.279879
2023-02-05T01:48:27.583Z,9.279799
2023-02-05T01:49:27.549Z,9.279868
2023-02-05T01:50:27.561Z,9.279886
2023-02-05T01:51:27.512Z,9.280204
2023-02-05T01:52:27.493Z,9.280134
2023-02-05T01:53:27.482Z,9.280100
2023-02-05T01:54:27.461Z,9.280038
2023-02-05T01:55:27.476Z,9.279910
2023-02-05T01:56:27.421Z,9.279746
2023-02-05T01:57:27.405Z,9.279923
2023-02-05T01:58:27.391Z,9.280076
2023-02-05T01:59:27.371Z,9.280062
2023-02-05T02:00:27.382Z,9.280031
2023-02-05T02:01:27.430Z,9.279971
2023-02-05T02:02:27.314Z,9.279899
2023-02-05T02:03:27.302Z,9.279944
2023-02-05T02:04:27.278Z,9.280049
2023-02-05T02:05:27.354Z,9.280064
2023-02-05T02:06:27.244Z,9.279954
2023-02-05T02:07:27.221Z,9.279933
2023-02-05T02:08:27.210Z,9.279909
2023-02-05T02:09:27.180Z,9.279866
2023-02-05T02:10:27.200Z,9.279834
2023-02-05T02:11:27.144Z,9.279821
2023-02-05T02:12:27.135Z,9.279938
2023-02-05T02:13:27.227Z,9.279860
2023-02-05T02:14:27.093Z,9.279885
2023-02-05T02:15:27.132Z,9.279875
2023-02-05T02:16:27.050Z,9.279881
2023-02-05T02:17:27.037Z,9.279976
2023-02-05T02:18:27.023Z,9.279938
2023-02-05T02:19:27.007Z,9.279806
2023-02-05T02:20:26.984Z,9.279777
2023-02-05T02:21:26.992Z,9.279863
2023-02-05T02:22:26.949Z,9.279924
2023-02-05T02:23:26.929Z,9.279720
2023-02-05T02:24:26.913Z,9.279888
2023-02-05T02:25:26.888Z,9.279868
2023-02-05T02:26:26.898Z,9.279922
2023-02-05T02:27:26.854Z,9.279903
2023-02-05T02:28:26.835Z,9.279799
2023-02-05T02:29:26.822Z,9.279655
2023-02-05T02:30:26.882Z,9.279789
2023-02-05T02:31:26.847Z,9.279897
2023-02-05T02:32:26.755Z,9.279946
2023-02-05T02:33:27.749Z,9.279824
2023-02-05T02:34:26.729Z,9.279913
2023-02-05T02:35:26.705Z,9.279878
2023-02-05T02:36:26.721Z,9.279964
2023-02-05T02:37:26.675Z,9.279942
2023-02-05T02:38:26.660Z,9.279878
2023-02-05T02:39:26.637Z,9.279928
2023-02-05T02:40:26.614Z,9.279822
2023-02-05T02:41:26.637Z,9.280151
2023-02-05T02:42:27.353Z,9.280061
2023-02-05T02:43:26.642Z,9.279961
2023-02-05T02:44:26.545Z,9.280019
2023-02-05T02:45:27.311Z,9.279913
2023-02-05T02:46:26.564Z,9.279709
2023-02-05T02:47:26.496Z,9.279747
2023-02-05T02:48:27.317Z,9.279842
2023-02-05T02:49:27.314Z,9.279967
2023-02-05T02:50:26.444Z,9.279981
2023-02-05T02:51:27.314Z,9.279907
2023-02-05T02:52:27.288Z,9.280145
2023-02-05T02:53:26.412Z,9.279937
2023-02-05T02:54:27.370Z,9.279984
2023-02-05T02:55:26.353Z,9.279979
2023-02-05T02:56:26.363Z,9.280026
2023-02-05T02:57:26.319Z,9.280095
2023-02-05T02:58:26.303Z,9.280094
2023-02-05T02:59:26.289Z,9.280037
2023-02-05T03:00:26.275Z,9.280029
2023-02-05T03:01:26.270Z,9.280012
2023-02-05T03:02:27.227Z,9.280066
2023-02-05T03:03:26.271Z,9.280130
2023-02-05T03:04:26.187Z,9.280130
2023-02-05T03:05:26.170Z,9.279985
2023-02-05T03:06:26.178Z,9.279911
2023-02-05T03:07:26.138Z,9.279916
2023-02-05T03:08:26.120Z,9.279977
2023-02-05T03:09:26.100Z,9.279996
2023-02-05T03:10:26.084Z,9.279906
2023-02-05T03:11:26.094Z,9.279850
2023-02-05T03:12:26.043Z,9.279973
2023-02-05T03:13:26.026Z,9.280101
2023-02-05T03:14:26.016Z,9.279999
2023-02-05T03:15:26.009Z,9.279984
2023-02-05T03:16:26.037Z,9.280039
2023-02-05T03:17:25.952Z,9.279922
2023-02-05T03:18:26.941Z,9.279984
2023-02-05T03:19:25.915Z,9.280181
2023-02-05T03:20:25.898Z,9.280046
2023-02-05T03:21:25.928Z,9.279951
2023-02-05T03:22:25.861Z,9.279956
2023-02-05T03:23:25.842Z,9.279887
2023-02-05T03:24:59.405Z,9.279943
2023-02-05T03:25:25.808Z,9.279960
2023-02-05T03:26:25.818Z,9.279944
2023-02-05T03:27:25.773Z,9.279905
2023-02-05T03:28:25.768Z,9.279831
2023-02-05T03:29:25.731Z,9.279921
2023-02-05T03:30:57.856Z,9.280006
2023-02-05T03:31:25.727Z,9.279949
2023-02-05T03:32:25.682Z,9.279955
2023-02-05T03:33:25.650Z,9.279881
2023-02-05T03:34:26.638Z,9.280027
2023-02-05T03:35:25.627Z,9.280001
2023-02-05T03:36:26.628Z,9.279882
2023-02-05T03:37:25.582Z,9.279937
2023-02-05T03:38:25.561Z,9.279931
2023-02-05T03:39:25.546Z,9.279795
2023-02-05T03:40:25.542Z,9.279846
2023-02-05T03:41:25.538Z,9.279946
2023-02-05T03:42:25.483Z,9.279984
2023-02-05T03:43:25.468Z,9.279922
2023-02-05T03:44:25.448Z,9.279953
2023-02-05T03:45:25.463Z,9.279985
2023-02-05T03:46:25.436Z,9.279813
2023-02-05T03:47:25.386Z,9.279881
2023-02-05T03:48:25.368Z,9.279951
2023-02-05T03:49:25.361Z,9.279893
2023-02-05T03:50:25.358Z,9.279903
2023-02-05T03:51:25.340Z,9.279894
2023-02-05T03:52:25.299Z,9.279876
2023-02-05T03:53:25.278Z,9.279795
2023-02-05T03:54:25.262Z,9.279783
2023-02-05T03:55:25.237Z,9.279886
2023-02-05T03:56:25.272Z,9.279850
2023-02-05T03:57:25.203Z,9.279925
2023-02-05T03:58:25.178Z,9.279882
2023-02-05T03:59:25.159Z,9.279883
2023-02-05T04:00:25.150Z,9.279957
2023-02-05T04:01:25.190Z,9.279888
2023-02-05T04:02:25.123Z,9.279826
2023-02-05T04:03:25.095Z,9.279817
2023-02-05T04:04:25.078Z,9.279807
2023-02-05T04:05:25.049Z,9.279845
2023-02-05T04:06:25.061Z,9.279882
2023-02-05T04:07:25.014Z,9.279863
2023-02-05T04:08:24.998Z,9.279807
2023-02-05T04:09:24.975Z,9.279812
2023-02-05T04:10:24.957Z,9.279893
2023-02-05T04:11:24.971Z,9.279848
2023-02-05T04:12:24.922Z,9.279785
2023-02-05T04:13:24.900Z,9.279660
2023-02-05T04:14:24.881Z,9.279678
2023-02-05T04:15:24.862Z,9.279757
2023-02-05T04:16:24.930Z,9.279818
2023-02-05T04:17:24.826Z,9.279849
2023-02-05T04:18:24.807Z,9.279807
2023-02-05T04:19:24.791Z,9.279859
2023-02-05T04:20:24.775Z,9.279860
2023-02-05T04:21:24.793Z,9.279869
2023-02-05T04:22:24.741Z,9.279914
2023-02-05T04:23:24.720Z,9.279816
2023-02-05T04:24:24.692Z,9.279859
2023-02-05T04:25:24.675Z,9.279845
2023-02-05T04:26:24.709Z,9.279823
2023-02-05T04:27:24.645Z,9.279872
2023-02-05T04:28:24.631Z,9.279921
2023-02-05T04:29:24.666Z,9.279825
2023-02-05T04:30:24.591Z,9.279824
2023-02-05T04:31:24.627Z,9.279807
2023-02-05T04:32:24.567Z,9.279849
2023-02-05T04:33:24.540Z,9.279858
2023-02-05T04:34:24.516Z,9.279853
2023-02-05T04:35:24.500Z,9.279902
2023-02-05T04:36:24.516Z,9.279902
2023-02-05T04:37:24.468Z,9.279927
2023-02-05T04:38:24.452Z,9.279888
2023-02-05T04:39:24.429Z,9.279844
2023-02-05T04:40:24.422Z,9.279831
2023-02-05T04:41:24.422Z,9.279854
2023-02-05T04:42:24.382Z,9.279909
2023-02-05T04:43:24.359Z,9.280046
2023-02-05T04:44:24.349Z,9.279889
2023-02-05T04:45:24.322Z,9.279858
2023-02-05T04:46:24.336Z,9.279882
2023-02-05T04:47:24.289Z,9.279899
2023-02-05T04:48:24.269Z,9.279796
2023-02-05T04:49:24.258Z,9.279928
2023-02-05T04:50:24.232Z,9.279978
2023-02-05T04:51:24.245Z,9.279987
2023-02-05T04:52:24.198Z,9.279998
2023-02-05T04:53:24.182Z,9.280043
2023-02-05T04:54:24.161Z,9.279966
2023-02-05T04:55:24.143Z,9.279991
2023-02-05T04:56:24.152Z,9.279870
2023-02-05T04:57:24.107Z,9.279933
2023-02-05T04:58:24.092Z,9.279991
2023-02-05T04:59:24.068Z,9.279895
2023-02-05T05:00:24.055Z,9.279860
2023-02-05T05:01:24.081Z,9.279880
2023-02-05T05:02:24.041Z,9.279865
2023-02-05T05:03:23.998Z,9.279848
2023-02-05T05:04:23.975Z,9.279935
2023-02-05T05:05:23.955Z,9.279916
2023-02-05T05:06:23.975Z,9.279919
2023-02-05T05:07:23.928Z,9.279905
2023-02-05T05:08:23.909Z,9.279902
2023-02-05T05:09:23.898Z,9.279832
2023-02-05T05:10:23.874Z,9.279856
2023-02-05T05:11:23.874Z,9.279849
2023-02-05T05:12:23.828Z,9.279814
2023-02-05T05:13:23.808Z,9.279850
2023-02-05T05:14:23.794Z,9.279869
2023-02-05T05:15:23.771Z,9.279914
2023-02-05T05:16:23.780Z,9.279905
2023-02-05T05:17:23.740Z,9.279913
2023-02-05T05:18:23.720Z,9.279872
2023-02-05T05:19:23.701Z,9.279886
2023-02-05T05:20:23.683Z,9.279886
2023-02-05T05:21:23.703Z,9.279915
2023-02-05T05:22:23.652Z,9.279911
2023-02-05T05:23:23.630Z,9.279923
2023-02-05T05:24:23.609Z,9.279913
2023-02-05T05:25:23.588Z,9.279950
2023-02-05T05:26:23.598Z,9.279961
2023-02-05T05:27:23.556Z,9.279953
2023-02-05T05:28:23.534Z,9.279916
2023-02-05T05:29:23.517Z,9.280016
2023-02-05T05:30:23.514Z,9.279751
2023-02-05T05:31:23.555Z,9.279787
2023-02-05T05:32:23.473Z,9.279896
2023-02-05T05:33:23.462Z,9.279863
2023-02-05T05:34:23.423Z,9.279979
2023-02-05T05:35:23.408Z,9.280012
2023-02-05T05:36:23.414Z,9.279767
2023-02-05T05:37:23.373Z,9.279804
2023-02-05T05:38:23.347Z,9.279893
2023-02-05T05:39:23.330Z,9.279977
2023-02-05T05:40:23.311Z,9.279853
2023-02-05T05:41:23.322Z,9.279891
2023-02-05T05:42:23.278Z,9.279907
2023-02-05T05:43:23.252Z,9.279928
2023-02-05T05:44:23.248Z,9.279979
2023-02-05T05:45:23.215Z,9.279837
2023-02-05T05:46:23.275Z,9.279980
2023-02-05T05:47:23.183Z,9.279920
2023-02-05T05:48:23.166Z,9.279961
2023-02-05T05:49:23.150Z,9.279909
2023-02-05T05:50:23.126Z,9.279998
2023-02-05T05:51:24.150Z,9.279984
2023-02-05T05:52:23.094Z,9.279905
2023-02-05T05:53:23.073Z,9.279945
2023-02-05T05:54:23.045Z,9.279941
2023-02-05T05:55:24.036Z,9.279957
2023-02-05T05:56:23.098Z,9.279901
2023-02-05T05:57:23.004Z,9.279947
2023-02-05T05:58:22.969Z,9.279957
2023-02-05T05:59:23.960Z,9.280014
2023-02-05T06:00:22.941Z,9.279986
2023-02-05T06:01:22.974Z,9.279947
2023-02-05T06:02:22.941Z,9.280004
2023-02-05T06:03:22.889Z,9.279932
2023-02-05T06:04:22.908Z,9.280026
2023-02-05T06:05:22.850Z,9.280010
2023-02-05T06:06:22.834Z,9.279961
2023-02-05T06:07:22.840Z,9.279953
2023-02-05T06:08:22.793Z,9.279927
2023-02-05T06:09:22.777Z,9.279985
2023-02-05T06:10:22.759Z,9.280006
2023-02-05T06:11:22.740Z,9.279960
2023-02-05T06:12:22.745Z,9.279999
2023-02-05T06:13:22.706Z,9.279894
2023-02-05T06:14:22.684Z,9.279943
2023-02-05T06:15:22.665Z,9.279959
2023-02-05T06:16:22.668Z,9.279927
2023-02-05T06:17:22.661Z,9.280090
2023-02-05T06:18:23.820Z,9.280044
2023-02-05T06:19:23.597Z,9.279963
2023-02-05T06:20:22.577Z,9.280157
2023-02-05T06:21:22.564Z,9.280069
2023-02-05T06:22:22.574Z,9.279938
2023-02-05T06:23:22.524Z,9.279968
2023-02-05T06:24:22.509Z,9.280042
2023-02-05T06:25:22.489Z,9.280037
2023-02-05T06:26:22.467Z,9.280041
2023-02-05T06:27:22.477Z,9.279992
2023-02-05T06:28:22.436Z,9.279989
2023-02-05T06:29:22.415Z,9.280008
2023-02-05T06:30:22.409Z,9.280005
2023-02-05T06:31:22.482Z,9.280021
2023-02-05T06:32:22.395Z,9.279803
2023-02-05T06:33:22.355Z,9.279878
2023-02-05T06:34:22.329Z,9.279985
2023-02-05T06:35:22.318Z,9.279955
2023-02-05T06:36:22.295Z,9.280093
2023-02-05T06:37:24.942Z,9.279987
2023-02-05T06:38:22.258Z,9.279927
2023-02-05T06:39:24.925Z,9.280171
2023-02-05T06:40:22.409Z,9.280153
2023-02-05T06:41:22.201Z,9.280101
2023-02-05T06:42:22.215Z,9.280088
2023-02-05T06:43:22.168Z,9.280097
2023-02-05T06:44:22.158Z,9.279980
2023-02-05T06:45:22.130Z,9.280046
2023-02-05T06:46:22.935Z,9.280122
2023-02-05T06:47:22.120Z,9.280073
2023-02-05T06:48:22.077Z,9.280127
2023-02-05T06:49:22.055Z,9.280107
2023-02-05T06:50:22.036Z,9.280052
2023-02-05T06:51:22.025Z,9.280094
2023-02-05T06:52:22.028Z,9.280032
2023-02-05T06:53:21.983Z,9.280006
2023-02-05T06:54:21.964Z,9.280016
2023-02-05T06:55:21.943Z,9.280037
2023-02-05T06:56:21.925Z,9.280031
2023-02-05T06:57:21.937Z,9.279916
2023-02-05T06:58:21.891Z,9.279989
2023-02-05T06:59:21.874Z,9.280060
2023-02-05T07:00:21.851Z,9.279997
2023-02-05T07:01:21.861Z,9.279990
2023-02-05T07:02:21.881Z,9.279987
2023-02-05T07:03:21.796Z,9.280075
2023-02-05T07:04:21.781Z,9.280048
2023-02-05T07:05:21.765Z,9.280054
2023-02-05T07:06:21.745Z,9.280076
2023-02-05T07:07:21.755Z,9.280167
2023-02-05T07:08:21.726Z,9.280192
2023-02-05T07:09:21.696Z,9.280092
2023-02-05T07:10:21.677Z,9.280148
2023-02-05T07:11:21.655Z,9.280087
2023-02-05T07:12:21.664Z,9.280093
2023-02-05T07:13:21.625Z,9.280098
2023-02-05T07:14:21.603Z,9.280023
2023-02-05T07:15:21.586Z,9.280054
2023-02-05T07:16:21.623Z,9.280064
2023-02-05T07:17:21.579Z,9.280089
2023-02-05T07:18:21.560Z,9.279996
2023-02-05T07:19:21.515Z,9.279968
2023-02-05T07:20:21.501Z,9.280079
2023-02-05T07:21:21.482Z,9.280099
2023-02-05T07:22:21.460Z,9.280166
2023-02-05T07:23:21.466Z,9.280231
2023-02-05T07:24:21.419Z,9.280102
2023-02-05T07:25:21.403Z,9.280072
2023-02-05T07:26:21.383Z,9.280132
2023-02-05T07:27:21.393Z,9.280223
2023-02-05T07:28:21.342Z,9.280137
2023-02-05T07:29:21.326Z,9.280136
2023-02-05T07:30:21.308Z,9.280173
2023-02-05T07:31:21.390Z,9.280190
2023-02-05T07:32:21.302Z,9.280039
2023-02-05T07:33:21.255Z,9.280114
2023-02-05T07:34:21.242Z,9.280126
2023-02-05T07:35:21.220Z,9.280149
2023-02-05T07:36:21.199Z,9.280133
2023-02-05T07:37:21.560Z,9.280058
2023-02-05T07:38:22.163Z,9.280078
2023-02-05T07:39:21.141Z,9.280075
2023-02-05T07:40:21.123Z,9.280229
2023-02-05T07:41:21.104Z,9.280228
2023-02-05T07:42:21.111Z,9.280188
2023-02-05T07:43:21.064Z,9.280131
2023-02-05T07:44:21.049Z,9.280137
2023-02-05T07:45:21.024Z,9.280180
2023-02-05T07:46:21.035Z,9.280135
2023-02-05T07:47:21.428Z,9.280104
2023-02-05T07:48:21.227Z,9.280097
2023-02-05T07:49:21.376Z,9.280073
2023-02-05T07:50:21.118Z,9.280042
2023-02-05T07:51:21.011Z,9.280061
2023-02-05T07:52:20.918Z,9.280088
2023-02-05T07:53:20.945Z,9.280084
2023-02-05T07:54:21.021Z,9.280079
2023-02-05T07:55:20.984Z,9.279999
2023-02-05T07:56:20.817Z,9.279941
2023-02-05T07:57:20.830Z,9.279975
2023-02-05T07:58:20.804Z,9.279834
2023-02-05T07:59:21.842Z,9.279937
2023-02-05T08:00:20.911Z,9.279956
2023-02-05T08:01:20.915Z,9.279939
2023-02-05T08:02:20.734Z,9.280118
2023-02-05T08:03:22.516Z,9.280062
2023-02-05T08:04:20.777Z,9.280018
2023-02-05T08:05:20.654Z,9.280007
2023-02-05T08:06:20.637Z,9.280042
2023-02-05T08:07:20.640Z,9.279892
2023-02-05T08:08:20.595Z,9.279992
2023-02-05T08:09:20.577Z,9.279982
2023-02-05T08:10:20.559Z,9.280006
2023-02-05T08:11:20.548Z,9.279985
2023-02-05T08:12:20.555Z,9.279937
2023-02-05T08:13:20.510Z,9.279972
2023-02-05T08:14:20.493Z,9.279992
2023-02-05T08:15:20.470Z,9.279946
2023-02-05T08:16:20.529Z,9.280014
2023-02-05T08:17:20.462Z,9.280021
2023-02-05T08:18:20.416Z,9.280004
2023-02-05T08:19:20.393Z,9.280020
2023-02-05T08:20:20.375Z,9.279972
2023-02-05T08:21:20.356Z,9.279927
2023-02-05T08:22:20.371Z,9.280003
2023-02-05T08:23:20.318Z,9.280016
2023-02-05T08:24:20.300Z,9.279949
2023-02-05T08:25:20.284Z,9.279928
2023-02-05T08:26:20.270Z,9.279865
2023-02-05T08:27:20.288Z,9.279851
2023-02-05T08:28:20.567Z,9.279988
2023-02-05T08:29:20.212Z,9.279986
2023-02-05T08:30:20.193Z,9.279970
2023-02-05T08:31:20.266Z,9.280092
2023-02-05T08:32:20.203Z,9.279952
2023-02-05T08:33:20.150Z,9.279935
2023-02-05T08:34:20.992Z,9.279979
2023-02-05T08:35:21.108Z,9.279943
2023-02-05T08:36:20.088Z,9.279995
2023-02-05T08:37:20.100Z,9.279975
2023-02-05T08:38:20.046Z,9.279926
2023-02-05T08:39:20.030Z,9.279949
2023-02-05T08:40:20.014Z,9.279938
2023-02-05T08:41:19.993Z,9.280071
2023-02-05T08:42:20.005Z,9.279966
2023-02-05T08:43:19.960Z,9.279949
2023-02-05T08:44:19.966Z,9.279934
2023-02-05T08:45:19.933Z,9.279930
2023-02-05T08:46:19.902Z,9.279938
2023-02-05T08:47:19.892Z,9.279878
2023-02-05T08:48:19.901Z,9.279911
2023-02-05T08:49:19.850Z,9.279956
2023-02-05T08:50:19.832Z,9.279934
2023-02-05T08:51:19.817Z,9.279941
2023-02-05T08:52:19.794Z,9.279983
2023-02-05T08:53:19.804Z,9.279948
2023-02-05T08:54:19.760Z,9.279981
2023-02-05T08:55:19.776Z,9.279860
2023-02-05T08:56:20.356Z,9.279896
2023-02-05T08:57:20.706Z,9.279852
2023-02-05T08:58:19.713Z,9.279878
2023-02-05T08:59:19.669Z,9.279862
2023-02-05T09:00:19.648Z,9.279778
2023-02-05T09:01:19.703Z,9.279875
2023-02-05T09:02:19.614Z,9.279863
2023-02-05T09:03:19.618Z,9.279905
2023-02-05T09:04:19.606Z,9.279898
2023-02-05T09:05:19.556Z,9.279890
2023-02-05T09:06:19.539Z,9.279891
2023-02-05T09:07:19.526Z,9.279874
2023-02-05T09:08:19.528Z,9.279943
2023-02-05T09:09:19.489Z,9.279834
2023-02-05T09:10:19.470Z,9.279922
2023-02-05T09:11:19.450Z,9.279956
2023-02-05T09:12:19.445Z,9.279883
2023-02-05T09:13:19.439Z,9.279860
2023-02-05T09:14:19.393Z,9.279853
2023-02-05T09:15:19.375Z,9.279893
2023-02-05T09:16:19.392Z,9.279937
2023-02-05T09:17:19.341Z,9.279842
2023-02-05T09:18:19.364Z,9.279972
2023-02-05T09:19:19.301Z,9.279943
2023-02-05T09:20:19.286Z,9.279824
2023-02-05T09:21:19.269Z,9.279825
2023-02-05T09:22:19.250Z,9.279868
2023-02-05T09:23:19.270Z,9.279804
2023-02-05T09:24:19.229Z,9.279887
2023-02-05T09:25:19.217Z,9.279886
2023-02-05T09:26:19.206Z,9.279867
2023-02-05T09:27:19.166Z,9.279903
2023-02-05T09:28:19.201Z,9.279902
2023-02-05T09:29:19.120Z,9.279793
2023-02-05T09:30:20.113Z,9.279898
2023-02-05T09:31:19.193Z,9.279901
2023-02-05T09:32:19.702Z,9.279870
2023-02-05T09:33:19.107Z,9.279836
2023-02-05T09:34:19.034Z,9.279939
2023-02-05T09:35:19.013Z,9.279914
2023-02-05T09:36:18.995Z,9.279971
2023-02-05T09:37:18.977Z,9.280005
2023-02-05T09:38:18.988Z,9.279990
2023-02-05T09:39:52.348Z,9.279896
2023-02-05T09:40:21.807Z,9.279937
2023-02-05T09:41:19.906Z,9.280067
2023-02-05T09:42:18.909Z,9.280080
2023-02-05T09:43:18.897Z,9.280105
2023-02-05T09:44:18.851Z,9.280007
2023-02-05T09:45:18.859Z,9.279857
2023-02-05T09:46:18.886Z,9.279828
2023-02-05T09:47:18.914Z,9.279950
2023-02-05T09:48:18.843Z,9.280076
2023-02-05T09:49:18.882Z,9.279877
2023-02-05T09:50:18.744Z,9.279531
2023-02-05T09:51:18.724Z,9.279540
2023-02-05T09:52:18.706Z,9.279820
2023-02-05T09:53:18.712Z,9.279827
2023-02-05T09:54:18.665Z,9.279808
2023-02-05T09:55:18.687Z,9.279832
2023-02-05T09:56:18.632Z,9.279928
2023-02-05T09:57:18.608Z,9.279859
2023-02-05T09:58:18.613Z,9.279728
2023-02-05T09:59:18.588Z,9.279716
2023-02-05T10:00:18.594Z,9.279798
2023-02-05T10:01:18.561Z,9.279630
2023-02-05T10:02:18.556Z,9.279694
2023-02-05T10:03:18.550Z,9.279632
2023-02-05T10:04:18.568Z,9.279545
2023-02-05T10:05:18.504Z,9.279767
2023-02-05T10:06:18.442Z,9.279843
2023-02-05T10:07:18.423Z,9.279647
2023-02-05T10:08:18.434Z,9.279718
2023-02-05T10:09:18.392Z,9.279631
2023-02-05T10:10:18.368Z,9.279774
2023-02-05T10:11:18.350Z,9.279904
2023-02-05T10:12:18.338Z,9.279982
2023-02-05T10:13:18.342Z,9.279910
2023-02-05T10:14:18.295Z,9.279927
2023-02-05T10:15:18.278Z,9.279860
2023-02-05T10:16:18.299Z,9.279895
2023-02-05T10:17:18.249Z,9.279936
2023-02-05T10:18:18.269Z,9.279888
2023-02-05T10:19:18.205Z,9.279814
2023-02-05T10:20:18.207Z,9.279867
2023-02-05T10:21:18.170Z,9.279879
2023-02-05T10:22:18.163Z,9.279831
2023-02-05T10:23:18.156Z,9.279888
2023-02-05T10:24:18.111Z,9.279778
2023-02-05T10:25:18.094Z,9.279932
2023-02-05T10:26:18.075Z,9.279902
2023-02-05T10:27:18.057Z,9.279825
2023-02-05T10:28:18.130Z,9.279669
2023-02-05T10:29:18.024Z,9.279900
2023-02-05T10:30:18.003Z,9.279944
2023-02-05T10:31:18.059Z,9.279857
2023-02-05T10:32:17.966Z,9.279899
2023-02-05T10:33:17.976Z,9.279877
2023-02-05T10:34:17.939Z,9.279865
2023-02-05T10:35:17.913Z,9.279875
2023-02-05T10:36:17.899Z,9.279859
2023-02-05T10:37:17.884Z,9.279848
2023-02-05T10:38:17.888Z,9.279832
2023-02-05T10:39:17.840Z,9.279860
2023-02-05T10:40:17.820Z,9.279868
2023-02-05T10:41:17.835Z,9.279932
2023-02-05T10:42:17.784Z,9.280002
2023-02-05T10:43:17.766Z,9.279976
2023-02-05T10:44:17.751Z,9.280014
2023-02-05T10:45:19.198Z,9.279999
2023-02-05T10:46:18.751Z,9.279946
2023-02-05T10:47:17.692Z,9.280013
2023-02-05T10:48:17.670Z,9.279976
2023-02-05T10:49:17.652Z,9.279893
2023-02-05T10:50:17.630Z,9.279904
2023-02-05T10:51:17.643Z,9.279910
2023-02-05T10:52:17.597Z,9.279878
2023-02-05T10:53:17.607Z,9.279955
2023-02-05T10:54:17.568Z,9.279964
2023-02-05T10:55:17.541Z,9.280020
2023-02-05T10:56:17.539Z,9.279882
2023-02-05T10:57:17.512Z,9.280013
2023-02-05T10:58:17.517Z,9.280066
2023-02-05T10:59:17.470Z,9.279899
2023-02-05T11:00:17.476Z,9.279897
2023-02-05T11:01:17.488Z,9.280022
2023-02-05T11:02:17.407Z,9.279820
2023-02-05T11:03:17.423Z,9.279824
2023-02-05T11:04:17.376Z,9.280042
2023-02-05T11:05:17.361Z,9.280141
2023-02-05T11:06:17.340Z,9.279991
2023-02-05T11:07:17.318Z,9.279923
2023-02-05T11:08:17.338Z,9.280242
2023-02-05T11:09:17.281Z,9.280275
2023-02-05T11:10:17.271Z,9.280064
2023-02-05T11:11:17.268Z,9.280021
2023-02-05T11:12:17.221Z,9.279862
2023-02-05T11:13:17.237Z,9.280017
2023-02-05T11:14:17.183Z,9.279918
2023-02-05T11:15:17.164Z,9.279974
2023-02-05T11:16:17.147Z,9.280083
2023-02-05T11:17:17.138Z,9.280005
2023-02-05T11:18:17.137Z,9.279961
2023-02-05T11:19:17.090Z,9.279858
2023-02-05T11:20:17.069Z,9.279879
2023-02-05T11:21:17.049Z,9.279939
2023-02-05T11:22:17.029Z,9.280138
2023-02-05T11:23:17.039Z,9.280215
2023-02-05T11:24:16.988Z,9.279869
2023-02-05T11:25:16.991Z,9.279843
2023-02-05T11:26:16.955Z,9.279914
2023-02-05T11:27:16.969Z,9.279984
2023-02-05T11:28:17.015Z,9.279923
2023-02-05T11:29:16.927Z,9.279880
2023-02-05T11:30:17.811Z,9.279848
2023-02-05T11:31:16.916Z,9.279860
2023-02-05T11:32:16.908Z,9.279848
2023-02-05T11:33:16.824Z,9.279938
2023-02-05T11:34:16.836Z,9.279995
2023-02-05T11:35:16.785Z,9.280252
2023-02-05T11:36:16.776Z,9.280153
2023-02-05T11:37:16.751Z,9.280005
2023-02-05T11:38:16.730Z,9.280072
2023-02-05T11:39:16.742Z,9.280038
2023-02-05T11:40:16.769Z,9.280003
2023-02-05T11:41:16.679Z,9.280136
2023-02-05T11:42:16.669Z,9.279974
2023-02-05T11:43:16.639Z,9.280069
2023-02-05T11:44:16.651Z,9.280069